Time;durP1;ratioP1;P1;durP2;ratioP2;P2;SDS_P1;SDS_P2;PMS_P1;PMS_P2;Temp;Humidity;BMP_temperature;BMP_pressure;BME280_temperature;BME280_humidity;BME280_pressure;Samples;Min_cycle;Max_cycle;Signal;HPM_P1;HPM_P2
2023/09/08 00:01:22;;;;;;;24.35;17.70;;;;;;;-142.75;100.00;75944.38;5006270;28;20053;-65
2023/09/08 00:03:47;;;;;;;24.40;17.40;;;;;;;-142.75;100.00;75950.28;5005900;28;20014;-67
2023/09/08 00:06:12;;;;;;;24.05;17.10;;;;;;;-142.75;100.00;75946.34;5005893;28;21700;-64
2023/09/08 00:08:38;;;;;;;26.27;18.02;;;;;;;-142.75;100.00;75944.38;5005692;28;20030;-67
2023/09/08 00:11:04;;;;;;;24.63;18.27;;;;;;;-142.75;100.00;75944.38;4987771;28;20684;-66
2023/09/08 00:13:30;;;;;;;18.30;14.07;;;;;;;-142.75;100.00;75950.28;5006025;28;20470;-67
2023/09/08 00:15:55;;;;;;;22.05;16.27;;;;;;;-142.75;100.00;75964.03;5005820;28;20056;-64
2023/09/08 00:18:20;;;;;;;22.63;17.25;;;;;;;-142.75;100.00;75975.84;5005833;28;20397;-65
2023/09/08 00:20:46;;;;;;;21.08;15.00;;;;;;;-142.75;100.00;76007.34;5005589;28;20452;-68
2023/09/08 00:23:11;;;;;;;21.60;15.00;;;;;;;-142.75;100.00;76046.72;5005642;28;20036;-65
2023/09/08 00:25:36;;;;;;;20.88;16.02;;;;;;;-142.75;100.00;76050.66;5005782;28;20029;-67
2023/09/08 00:28:03;;;;;;;21.65;15.85;;;;;;;-142.75;100.00;76038.84;5006810;28;20030;-62
2023/09/08 00:30:28;;;;;;;24.40;16.10;;;;;;;-142.75;100.00;76030.97;5003948;28;20126;-64
2023/09/08 00:32:53;;;;;;;22.30;16.23;;;;;;;-142.75;100.00;76023.09;5005614;28;20412;-67
2023/09/08 00:35:19;;;;;;;23.67;16.80;;;;;;;-142.75;100.00;76038.84;5005432;28;20017;-68
2023/09/08 00:37:44;;;;;;;18.88;13.20;;;;;;;-142.75;100.00;76048.69;4987793;28;20463;-64
2023/09/08 00:40:10;;;;;;;21.50;15.70;;;;;;;-142.75;100.00;76054.59;5004948;28;20040;-64
2023/09/08 00:42:35;;;;;;;19.38;14.68;;;;;;;-142.75;100.00;76046.72;5005448;28;20032;-61
2023/09/08 00:45:01;;;;;;;22.17;16.13;;;;;;;-142.75;100.00;76040.81;5005628;28;20033;-63
2023/09/08 00:47:26;;;;;;;23.92;17.40;;;;;;;-142.75;100.00;76034.91;5004881;28;20105;-65
2023/09/08 00:49:51;;;;;;;22.88;17.30;;;;;;;-142.75;100.00;76027.03;5004452;28;20138;-64
2023/09/08 00:52:17;;;;;;;20.60;15.77;;;;;;;-142.75;100.00;76013.25;5005486;28;20022;-66
2023/09/08 00:54:43;;;;;;;23.83;16.27;;;;;;;-142.75;100.00;76005.38;5005090;28;20084;-65
2023/09/08 00:57:09;;;;;;;23.52;15.90;;;;;;;-142.75;100.00;75995.53;5004686;28;20526;-66
2023/09/08 00:59:35;;;;;;;19.45;15.18;;;;;;;-142.75;100.00;76048.69;5004760;28;20033;-66
2023/09/08 01:02:01;;;;;;;18.42;14.35;;;;;;;-142.75;100.00;76058.53;5005078;28;20022;-68
2023/09/08 01:04:27;;;;;;;16.58;12.38;;;;;;;-142.75;100.00;76082.13;5004859;28;20026;-70
2023/09/08 01:06:54;;;;;;;16.92;11.60;;;;;;;-142.75;100.00;76070.34;5005090;28;20639;-66
2023/09/08 01:09:20;;;;;;;19.67;14.25;;;;;;;-142.75;100.00;76078.19;5004390;28;20868;-71
2023/09/08 01:11:46;;;;;;;19.90;14.55;;;;;;;-142.75;100.00;76086.06;5004816;28;20398;-68
2023/09/08 01:14:13;;;;;;;20.25;14.63;;;;;;;-142.75;100.00;76086.06;5005423;28;20481;-62
2023/09/08 01:16:40;;;;;;;20.95;15.35;;;;;;;-142.75;100.00;76068.38;5004632;28;20626;-61
2023/09/08 01:19:12;;;;;;;20.65;15.02;;;;;;;-142.75;100.00;76058.53;5004287;28;20054;-62
2023/09/08 01:22:14;;;;;;;20.95;15.63;;;;;;;-142.75;100.00;76038.84;5004623;28;20109;-62
2023/09/08 01:24:54;;;;;;;23.08;14.77;;;;;;;-142.75;100.00;76015.22;5001424;28;20034;-61
2023/09/08 01:27:23;;;;;;;21.40;15.93;;;;;;;-142.75;100.00;76009.31;5001900;28;20030;-62
2023/09/08 01:29:50;;;;;;;20.63;15.70;;;;;;;-142.75;100.00;76058.53;5002710;28;20376;-62
2023/09/08 01:32:16;;;;;;;21.92;15.80;;;;;;;-142.75;100.00;76080.16;4986360;28;20060;-62
2023/09/08 01:34:42;;;;;;;19.13;14.25;;;;;;;-142.75;100.00;76097.88;4986206;28;20017;-61
2023/09/08 01:37:07;;;;;;;21.95;15.90;;;;;;;-142.75;100.00;76099.84;5003862;28;20548;-61
2023/09/08 01:39:32;;;;;;;21.80;15.20;;;;;;;-142.75;100.00;76117.56;5003465;28;20605;-60
2023/09/08 01:41:58;;;;;;;20.45;14.02;;;;;;;-142.75;100.00;76105.75;5004145;28;20038;-56
2023/09/08 01:44:23;;;;;;;19.85;14.88;;;;;;;-142.75;100.00;76097.88;5004319;28;20034;-61
2023/09/08 01:46:51;;;;;;;20.27;15.50;;;;;;;-142.75;100.00;76101.81;5002537;28;20842;-61
2023/09/08 01:49:16;;;;;;;17.30;13.23;;;;;;;-142.75;100.00;76097.88;5003910;28;20419;-61
2023/09/08 01:51:41;;;;;;;19.30;14.57;;;;;;;-142.75;100.00;76093.94;4986845;28;20032;-61
2023/09/08 01:54:07;;;;;;;23.20;16.02;;;;;;;-142.75;100.00;76091.97;5004180;28;20022;-62
2023/09/08 01:56:32;;;;;;;22.63;16.90;;;;;;;-142.75;100.00;76090.00;5004482;28;20025;-61
2023/09/08 01:58:59;;;;;;;22.38;16.80;;;;;;;-142.75;100.00;76078.19;5004355;28;20058;-61
2023/09/08 02:01:24;;;;;;;23.05;16.42;;;;;;;-142.75;100.00;76093.94;5006768;28;20061;-61
2023/09/08 02:03:49;;;;;;;21.80;14.73;;;;;;;-142.75;100.00;76103.78;5006288;28;20053;-60
2023/09/08 02:06:15;;;;;;;19.67;14.15;;;;;;;-142.75;100.00;76117.56;5007788;28;20026;-61
2023/09/08 02:08:40;;;;;;;20.85;15.15;;;;;;;-142.75;100.00;76111.66;5006492;28;20505;-61
2023/09/08 02:11:05;;;;;;;23.38;15.52;;;;;;;-142.75;100.00;76115.59;5005820;28;20080;-62
2023/09/08 02:13:31;;;;;;;20.02;14.75;;;;;;;-142.75;100.00;76105.75;5007956;28;20437;-61
2023/09/08 02:15:56;;;;;;;22.80;15.50;;;;;;;-142.75;100.00;76095.91;5007917;28;20025;-61
2023/09/08 02:18:21;;;;;;;20.15;14.05;;;;;;;-142.75;100.00;76093.94;5005532;28;20088;-62
2023/09/08 02:20:47;;;;;;;18.92;13.75;;;;;;;-142.75;100.00;76097.88;5007899;28;20050;-61
2023/09/08 02:23:12;;;;;;;26.33;16.92;;;;;;;-142.75;100.00;76093.94;5006367;28;20025;-61
2023/09/08 02:25:37;;;;;;;23.13;17.30;;;;;;;-142.75;100.00;76095.91;5008015;28;20033;-61
2023/09/08 02:28:03;;;;;;;18.05;12.82;;;;;;;-142.75;100.00;76103.78;5008430;28;20029;-61
2023/09/08 02:30:28;;;;;;;14.35;10.68;;;;;;;-142.75;100.00;76117.56;5005111;28;20673;-61
2023/09/08 02:32:55;;;;;;;13.15;10.27;;;;;;;-142.75;100.00;76153.00;5007561;28;20037;-61
2023/09/08 02:35:21;;;;;;;14.95;10.85;;;;;;;-142.75;100.00;76147.09;5005653;28;20057;-61
2023/09/08 02:37:46;;;;;;;17.60;11.90;;;;;;;-142.75;100.00;76164.81;5006315;28;20109;-62
2023/09/08 02:40:11;;;;;;;15.32;11.13;;;;;;;-142.75;100.00;76180.56;5006035;28;20112;-61
2023/09/08 02:42:37;;;;;;;19.52;13.00;;;;;;;-142.75;100.00;76184.50;5007321;28;20524;-61
2023/09/08 02:45:02;;;;;;;16.45;12.50;;;;;;;-142.75;100.00;76178.59;5007333;28;20030;-61
2023/09/08 02:47:27;;;;;;;20.58;14.75;;;;;;;-142.75;100.00;76172.69;5005362;28;20037;-61
2023/09/08 02:49:53;;;;;;;19.75;14.65;;;;;;;-142.75;100.00;76166.78;5005788;28;20217;-61
2023/09/08 02:52:19;;;;;;;19.45;14.00;;;;;;;-142.75;100.00;76160.88;5007350;28;20124;-61
2023/09/08 02:54:45;;;;;;;25.05;14.90;;;;;;;-142.75;100.00;76156.94;5006038;28;20041;-61
2023/09/08 02:57:10;;;;;;;21.90;16.83;;;;;;;-142.75;100.00;76143.16;5007953;28;20021;-62
2023/09/08 02:59:35;;;;;;;23.40;15.52;;;;;;;-142.75;100.00;76125.44;5007130;28;20372;-61
2023/09/08 03:02:01;;;;;;;21.70;15.93;;;;;;;-142.75;100.00;76099.84;5006070;28;20420;-61
2023/09/08 03:04:26;;;;;;;25.55;17.35;;;;;;;-142.75;100.00;76091.97;5006730;28;20024;-59
2023/09/08 03:06:51;;;;;;;23.33;16.88;;;;;;;-142.75;100.00;76082.13;5007076;28;20473;-62
2023/09/08 03:09:17;;;;;;;25.20;17.15;;;;;;;-142.75;100.00;76068.38;5006610;28;20048;-61
2023/09/08 03:11:42;;;;;;;30.67;18.02;;;;;;;-142.75;100.00;76062.47;5005784;28;20034;-61
2023/09/08 03:14:08;;;;;;;25.20;17.20;;;;;;;-142.75;100.00;76054.59;5006478;28;20041;-62
2023/09/08 03:16:33;;;;;;;22.80;17.13;;;;;;;-142.75;100.00;76050.66;5006862;28;20101;-62
2023/09/08 03:18:58;;;;;;;24.98;16.33;;;;;;;-142.75;100.00;76064.44;5004996;28;20049;-59
2023/09/08 03:21:24;;;;;;;25.00;16.33;;;;;;;-142.75;100.00;76062.47;5007259;28;20044;-61
2023/09/08 03:23:49;;;;;;;23.17;15.80;;;;;;;-142.75;100.00;76056.56;5006702;28;20022;-61
2023/09/08 03:26:14;;;;;;;21.67;15.95;;;;;;;-142.75;100.00;76060.50;5006986;28;20021;-61
2023/09/08 03:28:42;;;;;;;24.40;15.50;;;;;;;-142.75;100.00;76062.47;5006194;28;20022;-62
2023/09/08 03:31:07;;;;;;;22.67;14.48;;;;;;;-142.75;100.00;76066.41;5006245;28;20757;-63
2023/09/08 03:33:33;;;;;;;24.42;15.13;;;;;;;-142.75;100.00;76070.34;5006675;28;20037;-60
2023/09/08 03:35:58;;;;;;;24.27;15.38;;;;;;;-142.75;100.00;76070.34;5005042;28;20093;-60
2023/09/08 03:38:23;;;;;;;21.38;14.13;;;;;;;-142.75;100.00;76101.81;5003645;28;20033;-61
2023/09/08 03:40:49;;;;;;;19.17;12.82;;;;;;;-142.75;100.00;76113.63;5006216;28;20032;-62
2023/09/08 03:43:14;;;;;;;17.42;13.52;;;;;;;-142.75;100.00;76111.66;5006220;28;20721;-61
2023/09/08 03:45:40;;;;;;;21.45;14.93;;;;;;;-142.75;100.00;76107.72;5003841;28;20022;-61
2023/09/08 03:48:05;;;;;;;20.00;15.93;;;;;;;-142.75;100.00;76095.91;5006226;28;20238;-62
2023/09/08 03:50:31;;;;;;;20.48;14.05;;;;;;;-142.75;100.00;76111.66;5006345;28;20416;-61
2023/09/08 03:52:56;;;;;;;19.92;14.13;;;;;;;-142.75;100.00;76125.44;5006326;28;20111;-62
2023/09/08 03:55:22;;;;;;;19.40;13.63;;;;;;;-142.75;100.00;76131.34;5004936;28;20038;-60
2023/09/08 03:57:47;;;;;;;20.85;14.50;;;;;;;-142.75;100.00;76133.31;5006649;28;20068;-62
2023/09/08 04:00:19;;;;;;;19.65;12.32;;;;;;;-142.75;100.00;76141.19;5005631;28;20029;-59
2023/09/08 04:02:44;;;;;;;13.13;9.98;;;;;;;-142.75;100.00;76151.03;5006163;28;20026;-62
2023/09/08 04:05:10;;;;;;;14.70;10.35;;;;;;;-142.75;100.00;76141.19;5001734;28;20038;-60
2023/09/08 04:07:35;;;;;;;18.15;12.68;;;;;;;-142.75;100.00;76162.84;5004667;28;20097;-59
2023/09/08 04:10:01;;;;;;;15.43;11.25;;;;;;;-142.75;100.00;76180.56;5004401;28;20025;-62
2023/09/08 04:12:26;;;;;;;13.18;9.52;;;;;;;-142.75;100.00;76190.41;5004175;28;20049;-60
2023/09/08 04:14:52;;;;;;;12.55;9.10;;;;;;;-142.75;100.00;76194.34;5005120;28;20041;-61
2023/09/08 04:17:18;;;;;;;14.60;10.73;;;;;;;-142.75;100.00;76196.31;5005408;28;20033;-61
2023/09/08 04:19:43;;;;;;;18.98;12.30;;;;;;;-142.75;100.00;76202.19;5004286;28;20018;-61
2023/09/08 04:22:09;;;;;;;16.20;12.10;;;;;;;-142.75;100.00;76200.25;5005765;28;20068;-60
2023/09/08 04:24:36;;;;;;;15.70;10.68;;;;;;;-142.75;100.00;76184.50;5005411;28;20486;-62
2023/09/08 04:27:01;;;;;;;15.75;10.88;;;;;;;-142.75;100.00;76194.34;5005220;28;20116;-61
2023/09/08 04:29:26;;;;;;;15.70;11.00;;;;;;;-142.75;100.00;76186.47;5005726;28;20121;-61
2023/09/08 04:31:52;;;;;;;19.65;14.27;;;;;;;-142.75;100.00;76176.63;5005409;28;20057;-61
2023/09/08 04:34:18;;;;;;;22.67;14.85;;;;;;;-142.75;100.00;76151.03;5005372;28;20185;-62
2023/09/08 04:36:43;;;;;;;18.05;13.00;;;;;;;-142.75;100.00;76145.13;5005363;28;20022;-61
2023/09/08 04:39:11;;;;;;;16.52;11.35;;;;;;;-142.75;100.00;76154.97;5004900;28;20363;-62
2023/09/08 04:41:36;;;;;;;19.40;13.18;;;;;;;-142.75;100.00;76145.13;5005292;28;20028;-62
2023/09/08 04:44:02;;;;;;;18.25;13.93;;;;;;;-142.75;100.00;76129.38;5005088;28;20396;-61
2023/09/08 04:46:27;;;;;;;17.33;13.32;;;;;;;-142.75;100.00;76131.34;5005251;28;20022;-59
2023/09/08 04:48:53;;;;;;;17.88;13.40;;;;;;;-142.75;100.00;76125.44;5004947;28;20045;-61
2023/09/08 04:51:18;;;;;;;19.48;14.43;;;;;;;-142.75;100.00;76117.56;5005290;28;20044;-61
2023/09/08 04:53:43;;;;;;;23.75;14.13;;;;;;;-142.75;100.00;76129.38;5004947;28;20022;-61
2023/09/08 04:56:08;;;;;;;16.85;13.05;;;;;;;-142.75;100.00;76103.78;5003542;28;20075;-61
2023/09/08 04:58:34;;;;;;;16.58;12.98;;;;;;;-142.75;100.00;76109.69;5005717;28;20065;-61
2023/09/08 05:00:59;;;;;;;14.13;10.45;;;;;;;-142.75;100.00;76129.38;5004630;28;20051;-60
2023/09/08 05:03:26;;;;;;;17.55;11.73;;;;;;;-142.75;100.00;76135.28;4987210;28;20033;-62
2023/09/08 05:05:51;;;;;;;16.92;12.02;;;;;;;-142.75;100.00;76137.25;5004705;28;20038;-62
2023/09/08 05:08:16;;;;;;;16.77;12.07;;;;;;;-142.75;100.00;76129.38;4986496;28;20087;-61
2023/09/08 05:10:44;;;;;;;15.82;12.13;;;;;;;-142.75;100.00;76107.72;5003059;28;20022;-61
2023/09/08 05:13:09;;;;;;;15.63;11.18;;;;;;;-142.75;100.00;76111.66;5004455;28;20492;-62
2023/09/08 05:15:34;;;;;;;13.38;9.85;;;;;;;-142.75;100.00;76105.75;5004472;28;20066;-62
2023/09/08 05:18:00;;;;;;;12.82;8.50;;;;;;;-142.75;100.00;76141.19;5004957;28;20103;-61
2023/09/08 05:20:25;;;;;;;7.47;5.50;;;;;;;-142.75;100.00;76188.44;4987009;28;20030;-61
2023/09/08 05:22:52;;;;;;;11.32;6.38;;;;;;;-142.75;100.00;76215.97;5003073;28;20056;-62
2023/09/08 05:25:17;;;;;;;13.18;9.43;;;;;;;-142.75;100.00;76210.06;5004671;28;20496;-62
2023/09/08 05:27:43;;;;;;;20.90;11.35;;;;;;;-142.75;100.00;76208.09;5005297;28;20026;-61
2023/09/08 05:30:08;;;;;;;17.90;11.50;;;;;;;-142.75;100.00;76178.59;5003021;28;20037;-61
2023/09/08 05:32:34;;;;;;;16.08;11.80;;;;;;;-142.75;100.00;76158.91;5004567;28;20025;-62
2023/09/08 05:34:59;;;;;;;19.02;12.27;;;;;;;-142.75;100.00;76174.66;5003663;28;20044;-60
2023/09/08 05:37:24;;;;;;;16.80;11.10;;;;;;;-142.75;100.00;76200.25;5004468;28;20025;-62
2023/09/08 05:39:50;;;;;;;17.00;11.18;;;;;;;-142.75;100.00;76219.91;5003988;28;20156;-61
2023/09/08 05:42:15;;;;;;;13.30;10.45;;;;;;;-142.75;100.00;76212.03;5003002;28;20026;-62
2023/09/08 05:44:41;;;;;;;15.35;10.30;;;;;;;-142.75;100.00;76176.63;5004120;28;20026;-62
2023/09/08 05:47:06;;;;;;;17.83;10.80;;;;;;;-142.75;100.00;76149.06;5004358;28;20034;-62
2023/09/08 05:49:31;;;;;;;17.35;12.60;;;;;;;-142.75;100.00;76125.44;4986429;28;20029;-59
2023/09/08 05:51:57;;;;;;;13.32;10.57;;;;;;;-142.75;100.00;76158.91;5004161;28;20421;-61
2023/09/08 05:54:22;;;;;;;12.98;9.95;;;;;;;-142.75;100.00;76149.06;5004161;28;20028;-61
2023/09/08 05:56:47;;;;;;;11.55;8.32;;;;;;;-142.75;100.00;76166.78;5004064;28;20104;-62
2023/09/08 05:59:13;;;;;;;14.65;8.88;;;;;;;-142.75;100.00;76153.00;4986759;28;20477;-62
2023/09/08 06:01:38;;;;;;;17.63;12.73;;;;;;;-142.75;100.00;76129.38;5003183;28;20377;-61
2023/09/08 06:04:03;;;;;;;16.65;11.82;;;;;;;-142.75;100.00;76093.94;5004163;28;20030;-61
2023/09/08 06:06:29;;;;;;;15.15;11.20;;;;;;;-142.75;100.00;76060.50;5003886;28;20030;-62
2023/09/08 06:08:54;;;;;;;18.85;11.38;;;;;;;-142.75;100.00;76040.81;5004067;28;20030;-61
2023/09/08 06:11:20;;;;;;;18.30;11.70;;;;;;;-142.75;100.00;76042.78;4985979;28;22091;-62
2023/09/08 06:13:45;;;;;;;13.88;10.38;;;;;;;-142.75;100.00;76048.69;5003909;28;20033;-62
2023/09/08 06:16:10;;;;;;;15.45;12.57;;;;;;;-142.75;100.00;76046.72;5003460;28;20050;-59
2023/09/08 06:18:39;;;;;;;17.00;12.73;;;;;;;-142.75;100.00;76027.03;5003808;28;20025;-59
2023/09/08 06:21:07;;;;;;;14.73;10.65;;;;;;;-142.75;100.00;76015.22;5003777;28;20084;-60
2023/09/08 06:23:34;;;;;;;16.48;12.10;;;;;;;-142.75;100.00;76007.34;5004153;28;20034;-61
2023/09/08 06:26:00;;;;;;;16.85;12.73;;;;;;;-142.75;100.00;75991.59;4985687;28;20055;-62
2023/09/08 06:28:26;;;;;;;18.50;12.18;;;;;;;-142.75;100.00;75971.91;5004598;28;20085;-59
2023/09/08 06:30:52;;;;;;;18.27;13.05;;;;;;;-142.75;100.00;75962.09;5001047;28;20030;-60
2023/09/08 06:33:17;;;;;;;16.27;12.80;;;;;;;-142.75;100.00;75964.03;4986075;28;20423;-61
2023/09/08 06:35:42;;;;;;;19.45;12.45;;;;;;;-142.75;100.00;75944.38;4984757;28;20504;-61
2023/09/08 06:38:08;;;;;;;16.85;12.77;;;;;;;-142.75;100.00;75924.69;4986392;28;20104;-62
2023/09/08 06:40:33;;;;;;;21.90;13.85;;;;;;;-142.75;100.00;75928.63;5002927;28;22753;-62
2023/09/08 06:42:58;;;;;;;17.40;13.00;;;;;;;-142.75;100.00;75905.00;5003165;28;20033;-62
2023/09/08 06:45:24;;;;;;;17.30;13.20;;;;;;;-142.75;100.00;75901.06;5002704;28;20125;-62
2023/09/08 06:47:51;;;;;;;21.08;12.52;;;;;;;-142.75;100.00;75912.88;5007415;28;20120;-62
2023/09/08 06:50:16;;;;;;;17.65;12.20;;;;;;;-142.75;100.00;75918.78;5005807;28;20108;-62
2023/09/08 06:52:41;;;;;;;15.93;12.38;;;;;;;-142.75;100.00;75920.75;5007636;28;20608;-62
2023/09/08 06:55:07;;;;;;;20.63;13.65;;;;;;;-142.75;100.00;75906.97;5006619;28;20022;-62
2023/09/08 06:57:32;;;;;;;16.20;12.20;;;;;;;-142.75;100.00;75891.22;5007564;28;20026;-61
2023/09/08 06:59:58;;;;;;;18.45;12.13;;;;;;;-142.75;100.00;75883.34;5007523;28;20029;-62
2023/09/08 07:02:23;;;;;;;16.65;12.55;;;;;;;-142.75;100.00;75881.38;5007227;28;20084;-62
2023/09/08 07:04:48;;;;;;;20.80;13.80;;;;;;;-142.75;100.00;75875.47;5006541;28;20095;-62
2023/09/08 07:07:14;;;;;;;16.50;13.43;;;;;;;-142.75;100.00;75873.50;5006016;28;20033;-62
2023/09/08 07:09:39;;;;;;;16.38;12.95;;;;;;;-142.75;100.00;75857.78;5004651;28;20389;-62
2023/09/08 07:12:06;;;;;;;15.60;12.13;;;;;;;-142.75;100.00;75857.78;5006993;28;20380;-62
2023/09/08 07:14:32;;;;;;;18.13;13.10;;;;;;;-142.75;100.00;75806.59;5030584;22;20050;-62
2023/09/08 07:16:57;;;;;;;17.30;12.68;;;;;;;-142.75;100.00;75782.97;5022588;28;20118;-63
2023/09/08 07:19:23;;;;;;;19.27;14.13;;;;;;;-142.75;100.00;75771.16;5023533;28;20049;-62
2023/09/08 07:21:48;;;;;;;23.08;14.25;;;;;;;-142.75;100.00;75757.41;5027211;28;20100;-62
2023/09/08 07:24:13;;;;;;;19.42;13.73;;;;;;;-142.75;100.00;75743.63;5026045;28;20102;-61
2023/09/08 07:26:39;;;;;;;20.60;14.60;;;;;;;-142.75;100.00;75759.38;5026614;28;20030;-62
2023/09/08 07:29:04;;;;;;;16.95;14.23;;;;;;;-142.75;100.00;75741.66;5026624;28;20090;-62
2023/09/08 07:31:30;;;;;;;18.85;13.48;;;;;;;-142.75;100.00;75733.78;5026844;28;20025;-62
2023/09/08 07:33:55;;;;;;;20.00;13.93;;;;;;;-142.75;100.00;75720.00;5026955;28;20025;-62
2023/09/08 07:36:20;;;;;;;22.88;13.68;;;;;;;-142.75;100.00;75708.19;5027104;28;20023;-62
2023/09/08 07:38:46;;;;;;;18.25;14.00;;;;;;;-142.75;100.00;75700.31;5025539;28;20032;-63
2023/09/08 07:41:11;;;;;;;23.88;13.73;;;;;;;-142.75;100.00;75698.34;5026594;28;20075;-64
2023/09/08 07:43:40;;;;;;;20.38;15.25;;;;;;;-142.75;100.00;75662.94;5026657;28;20076;-62
2023/09/08 07:46:06;;;;;;;19.02;14.48;;;;;;;-142.75;100.00;75637.34;5026177;28;20029;-61
2023/09/08 07:48:31;;;;;;;20.48;14.25;;;;;;;-142.75;100.00;75645.22;5025088;28;20369;-62
2023/09/08 07:50:58;;;;;;;18.70;13.95;;;;;;;-142.75;100.00;75599.94;5025782;28;20380;-62
2023/09/08 07:53:23;;;;;;;21.23;14.35;;;;;;;-142.75;100.00;75597.97;5021750;28;20025;-62
2023/09/08 07:55:49;;;;;;;20.30;14.43;;;;;;;-142.75;100.00;75558.63;5026454;28;20021;-62
2023/09/08 07:58:14;;;;;;;20.83;13.40;;;;;;;-142.75;100.00;75558.63;5026447;28;20021;-62
2023/09/08 08:00:39;;;;;;;23.00;13.77;;;;;;;-142.75;100.00;75527.13;5026339;28;20033;-62
2023/09/08 08:03:06;;;;;;;18.65;13.02;;;;;;;-142.75;100.00;75487.78;5026123;28;20037;-62
2023/09/08 08:05:31;;;;;;;20.88;13.80;;;;;;;-142.75;100.00;75464.16;5026458;28;20025;-63
2023/09/08 08:07:57;;;;;;;18.63;14.05;;;;;;;-142.75;100.00;75450.38;5027190;28;20033;-62
2023/09/08 08:10:22;;;;;;;17.67;13.23;;;;;;;-142.75;100.00;75432.69;5024300;28;20088;-62
2023/09/08 08:12:47;;;;;;;20.25;13.40;;;;;;;-142.75;100.00;75430.72;5027489;28;20108;-62
2023/09/08 08:15:13;;;;;;;21.55;14.13;;;;;;;-142.75;100.00;75426.78;5021646;28;20017;-62
2023/09/08 08:17:39;;;;;;;18.63;12.57;;;;;;;-142.75;100.00;75393.31;5024829;28;20037;-62
2023/09/08 08:20:09;;;;;;;21.25;13.85;;;;;;;-142.75;100.00;75379.53;5024674;28;20033;-62
2023/09/08 08:22:38;;;;;;;21.27;14.65;;;;;;;-142.75;100.00;75365.75;5025793;28;20064;-62
2023/09/08 08:25:04;;;;;;;21.10;14.43;;;;;;;-142.75;100.00;75361.84;5026452;28;20048;-61
2023/09/08 08:27:33;;;;;;;17.60;14.80;;;;;;;-142.75;100.00;75340.19;5026478;28;20389;-63
2023/09/08 08:30:00;;;;;;;21.70;14.65;;;;;;;-142.75;100.00;75346.09;5026521;28;20025;-63
2023/09/08 08:32:26;;;;;;;19.25;13.43;;;;;;;-142.75;100.00;75302.78;5026100;28;20040;-63
2023/09/08 08:34:52;;;;;;;20.27;13.73;;;;;;;-142.75;100.00;75287.06;5026611;28;20547;-63
2023/09/08 08:37:17;;;;;;;21.05;14.68;;;;;;;-142.75;100.00;75275.25;5026649;28;20036;-63
2023/09/08 08:39:43;;;;;;;17.27;13.57;;;;;;;-142.75;100.00;75241.78;5026673;28;20033;-62
2023/09/08 08:42:12;;;;;;;18.33;12.35;;;;;;;-142.75;100.00;75216.22;5026836;28;20096;-63
2023/09/08 08:44:38;;;;;;;18.73;12.75;;;;;;;-142.75;100.00;75220.16;5026957;28;20087;-62
2023/09/08 08:47:07;;;;;;;19.83;13.57;;;;;;;-142.75;100.00;75198.50;5027277;28;20044;-62
2023/09/08 08:49:33;;;;;;;18.85;13.38;;;;;;;-142.75;100.00;75188.66;5009007;28;20067;-63
2023/09/08 08:51:59;;;;;;;22.90;13.55;;;;;;;-142.75;100.00;75163.09;5026450;28;20017;-62
2023/09/08 08:54:24;;;;;;;19.13;14.13;;;;;;;-142.75;100.00;75172.91;5026270;28;20614;-62
2023/09/08 08:56:51;;;;;;;16.15;11.10;;;;;;;-142.75;100.00;75168.97;5026937;28;20059;-62
2023/09/08 08:59:16;;;;;;;16.88;11.48;;;;;;;-142.75;100.00;75176.84;5026847;28;20576;-62
2023/09/08 09:01:42;;;;;;;20.80;12.93;;;;;;;-142.75;100.00;75157.19;5026266;28;20017;-62
2023/09/08 09:04:09;;;;;;;20.50;12.85;;;;;;;-142.75;100.00;75155.22;5026575;28;20033;-62
2023/09/08 09:06:35;;;;;;;23.35;13.77;;;;;;;-142.75;100.00;75100.09;5026466;28;20477;-62
2023/09/08 09:09:03;;;;;;;17.58;12.48;;;;;;;-142.75;100.00;75129.63;5025341;28;20036;-62
2023/09/08 09:11:30;;;;;;;14.30;10.23;;;;;;;-142.75;100.00;75102.06;5026930;28;20048;-62
2023/09/08 09:13:56;;;;;;;17.13;11.80;;;;;;;-142.75;100.00;75109.94;5026379;28;20084;-62
2023/09/08 09:16:21;;;;;;;15.73;10.55;;;;;;;-142.75;100.00;75086.34;5025977;28;20488;-62
2023/09/08 09:18:55;;;;;;;16.05;10.90;;;;;;;-142.75;100.00;75080.44;5026630;28;20025;-62
2023/09/08 09:21:21;;;;;;;17.48;11.45;;;;;;;-142.75;100.00;75048.94;5026118;28;20025;-62
2023/09/08 09:23:46;;;;;;;14.45;10.70;;;;;;;-142.75;100.00;75054.84;5025893;28;20515;-62
2023/09/08 09:26:23;;;;;;;15.02;10.13;;;;;;;-142.75;100.00;75035.19;5026424;28;20036;-61
2023/09/08 09:28:49;;;;;;;16.60;9.73;;;;;;;-142.75;99.18;75056.81;5026513;28;20037;-63
2023/09/08 09:31:14;;;;;;;11.80;7.85;;;;;;;-142.75;99.94;75031.25;5026708;28;20574;-62
2023/09/08 09:33:40;;;;;;;13.10;8.95;;;;;;;-142.75;98.17;75023.38;5026173;28;20025;-62
2023/09/08 09:36:05;;;;;;;14.70;9.70;;;;;;;-142.75;97.13;74999.75;5025506;28;20025;-62
2023/09/08 09:38:31;;;;;;;12.65;9.00;;;;;;;-142.75;97.27;74966.31;5026283;28;20404;-62
2023/09/08 09:40:57;;;;;;;10.45;7.20;;;;;;;-142.75;95.22;74984.00;5026129;28;20029;-62
2023/09/08 09:43:22;;;;;;;13.50;6.72;;;;;;;-142.75;97.40;74980.06;5026548;28;20388;-62
2023/09/08 09:45:48;;;;;;;10.90;7.05;;;;;;;-142.75;99.76;74972.22;5026266;28;20014;-62
2023/09/08 09:48:13;;;;;;;10.38;6.22;;;;;;;-142.75;100.00;74960.41;5025673;28;20138;-62
2023/09/08 09:50:41;;;;;;;12.60;5.75;;;;;;;-142.75;97.90;74946.63;5025989;28;20021;-62
2023/09/08 09:53:15;;;;;;;10.48;6.28;;;;;;;-142.75;99.73;74944.66;5025809;28;20033;-63
2023/09/08 09:55:42;;;;;;;8.52;6.10;;;;;;;-142.75;94.83;74921.06;5026068;28;20022;-62
2023/09/08 09:58:10;;;;;;;10.48;6.82;;;;;;;-142.75;90.99;74897.44;5026088;28;20496;-62
2023/09/08 10:00:37;;;;;;;10.13;6.00;;;;;;;-142.75;95.85;74869.88;5024900;28;20033;-63
2023/09/08 10:03:03;;;;;;;10.07;6.22;;;;;;;-142.75;91.46;74881.69;5025373;28;20032;-63
2023/09/08 10:05:29;;;;;;;10.63;6.78;;;;;;;-142.75;87.75;74891.53;5007885;28;20029;-63
2023/09/08 10:07:55;;;;;;;11.93;6.45;;;;;;;-142.75;87.83;74873.81;5025701;28;20091;-63
2023/09/08 10:10:21;;;;;;;10.60;6.90;;;;;;;-142.75;90.18;74962.38;5026067;28;20401;-63
2023/09/08 10:12:54;;;;;;;8.18;6.00;;;;;;;-142.75;91.74;74901.38;5026303;28;20100;-63
2023/09/08 10:15:22;;;;;;;10.80;6.50;;;;;;;-142.75;88.49;74858.09;5026094;28;20499;-62
2023/09/08 10:17:56;;;;;;;12.25;7.60;;;;;;;-142.75;86.71;74924.97;5025694;28;20044;-63
2023/09/08 10:20:26;;;;;;;6.25;4.95;;;;;;;-142.75;88.26;74834.47;5026791;28;20025;-63
2023/09/08 10:23:03;;;;;;;9.70;5.72;;;;;;;-142.75;84.43;74791.19;5030279;28;20539;-62
2023/09/08 10:25:35;;;;;;;8.00;5.90;;;;;;;-142.75;82.21;74765.59;5029921;28;20026;-62
2023/09/08 10:28:02;;;;;;;8.90;4.75;;;;;;;-142.75;81.32;74803.00;5030449;28;20173;-63
2023/09/08 10:30:27;;;;;;;13.80;5.50;;;;;;;-142.75;83.41;74787.25;5029860;28;20288;-62
2023/09/08 10:32:53;;;;;;;7.90;5.15;;;;;;;-142.75;81.03;74826.59;5030098;28;20159;-63
2023/09/08 10:35:19;;;;;;;9.60;6.22;;;;;;;-142.75;81.84;74838.41;5030002;28;20038;-63
2023/09/08 10:37:44;;;;;;;25.10;8.13;;;;;;;-142.75;82.80;74781.34;5030064;28;20520;-63
2023/09/08 10:40:30;;;;;;;69.65;10.15;;;;;;;-142.75;81.61;74751.84;5029627;28;20025;-63
2023/09/08 10:43:08;;;;;;;8.27;5.15;;;;;;;-142.75;82.95;74728.22;5029921;28;20026;-62
2023/09/08 10:45:34;;;;;;;11.38;6.05;;;;;;;-142.75;86.80;74779.38;5030003;28;20026;-63
2023/09/08 10:48:00;;;;;;;8.82;6.30;;;;;;;-142.75;83.03;74793.16;5030229;28;20021;-62
2023/09/08 10:50:36;;;;;;;8.82;5.55;;;;;;;-142.75;84.09;74749.88;5029646;28;20033;-62
2023/09/08 10:53:15;;;;;;;8.73;4.85;;;;;;;-142.75;86.70;74726.25;5030477;28;20400;-61